메인 페이지
METAR-TAF:

METAR-TAF

공항 :

바르샤바 프레드릭 쇼팽 국제공항

바르샤바, 폴란드

위도: 52-10N, 경도: 020-58E, 고도: 106m

현재 날씨관측

예보는 12분 전, 01:00시(UTC)에 발표되었습니다.
남남동3kt
온도 10°C
습도 100%
기압 1016 hPa
시정 10km 이상
낮은 안개

METAR: EPWA 210100Z 15003KT 9999 MIFG NSC 10/10 Q1016 NOSIG

시각: 03:12 (01:12 UTC)

예보

예보는 1 시간 42분 전, 23:30시(UTC)에 발표되었습니다.
예보 대상 시간: 21일 00시부터 21일 24시까지 (UTC)
남동4kt
시정 10km 이상
1500m 미만 상공 구름 및 적란운 없음
일시적
21일 01시부터 21일 07시까지 (UTC)
시정: 3000m
박무
확률 40%
21일 02시부터 21일 06시까지 (UTC)
시정: 1400m
박무
전환 중
21일 18시부터 21일 20시까지 (UTC)
시정: 3000m
박무
일시적
21일 22시부터 21일 24시까지 (UTC)
시정: 1500m
박무

TAF: EPWA 202330Z 2100/2124 13004KT CAVOK TEMPO 2101/2107 3000 BR PROB40 2102/2106 1400 BR BECMG 2118/2120 3000 BR TEMPO 2122/2124 1500 BR

4,000개 이상의 공항 관측 자료 및 예보 (METAR 및 TAF 보고).

지도상에서 검색 가능한 기상관측소가 노란 점과 빨간 점으로 표시되어 있습니다.

기상관측소 명을 보려면 표시 위로 마우스를 이동하세요.

날씨 관측과 예보를 보려면 클릭하세요.

지도 변경 : 확대하려면 엑스 표시가 있는 녹색 버튼, 축소하려면 빼기 표시가 있는 녹색 버튼, 다음 페이지의 지도를 보려면 녹색 화살표를 클릭하세요.


METAR-TAF: